sensor_id;sensor_type;location;lat;lon;timestamp;P1;durP1;ratioP1;P2;durP2;ratioP2
11211;SDS011;5663;50.864;12.096;2022-12-18T00:00:26;33.97;;;15.83;;
11211;SDS011;5663;50.864;12.096;2022-12-18T00:02:55;25.87;;;14.43;;
11211;SDS011;5663;50.864;12.096;2022-12-18T00:05:26;32.03;;;15.30;;
11211;SDS011;5663;50.864;12.096;2022-12-18T00:07:55;33.30;;;14.83;;
11211;SDS011;5663;50.864;12.096;2022-12-18T00:10:23;28.73;;;14.73;;
11211;SDS011;5663;50.864;12.096;2022-12-18T00:12:51;32.53;;;15.53;;
11211;SDS011;5663;50.864;12.096;2022-12-18T00:15:19;31.17;;;15.23;;
11211;SDS011;5663;50.864;12.096;2022-12-18T00:17:49;24.43;;;13.57;;
11211;SDS011;5663;50.864;12.096;2022-12-18T00:20:17;31.10;;;14.70;;
11211;SDS011;5663;50.864;12.096;2022-12-18T00:22:51;31.60;;;15.40;;
11211;SDS011;5663;50.864;12.096;2022-12-18T00:25:19;31.20;;;15.93;;
11211;SDS011;5663;50.864;12.096;2022-12-18T00:27:47;27.90;;;15.23;;
11211;SDS011;5663;50.864;12.096;2022-12-18T00:30:16;32.40;;;14.80;;
11211;SDS011;5663;50.864;12.096;2022-12-18T00:32:44;27.63;;;15.07;;
11211;SDS011;5663;50.864;12.096;2022-12-18T00:35:14;26.60;;;14.23;;
11211;SDS011;5663;50.864;12.096;2022-12-18T00:37:42;31.57;;;15.53;;
11211;SDS011;5663;50.864;12.096;2022-12-18T00:40:11;32.73;;;16.37;;
11211;SDS011;5663;50.864;12.096;2022-12-18T00:42:39;30.27;;;15.20;;
11211;SDS011;5663;50.864;12.096;2022-12-18T00:45:23;31.03;;;15.63;;
11211;SDS011;5663;50.864;12.096;2022-12-18T00:47:52;32.60;;;14.13;;
11211;SDS011;5663;50.864;12.096;2022-12-18T00:50:23;26.00;;;13.33;;
11211;SDS011;5663;50.864;12.096;2022-12-18T00:52:54;27.57;;;14.90;;
11211;SDS011;5663;50.864;12.096;2022-12-18T00:55:45;28.37;;;13.63;;
11211;SDS011;5663;50.864;12.096;2022-12-18T00:58:15;32.87;;;15.03;;
11211;SDS011;5663;50.864;12.096;2022-12-18T01:00:43;27.97;;;14.27;;
11211;SDS011;5663;50.864;12.096;2022-12-18T01:03:13;29.33;;;14.40;;
11211;SDS011;5663;50.864;12.096;2022-12-18T01:05:43;28.20;;;14.33;;
11211;SDS011;5663;50.864;12.096;2022-12-18T01:08:11;29.53;;;14.93;;
11211;SDS011;5663;50.864;12.096;2022-12-18T01:10:39;28.27;;;13.93;;
11211;SDS011;5663;50.864;12.096;2022-12-18T01:13:08;28.33;;;13.93;;
11211;SDS011;5663;50.864;12.096;2022-12-18T01:15:36;26.57;;;13.53;;
11211;SDS011;5663;50.864;12.096;2022-12-18T01:18:08;30.93;;;14.33;;
11211;SDS011;5663;50.864;12.096;2022-12-18T01:20:39;29.57;;;14.23;;
11211;SDS011;5663;50.864;12.096;2022-12-18T01:23:11;26.10;;;13.53;;
11211;SDS011;5663;50.864;12.096;2022-12-18T01:25:39;28.67;;;13.70;;
11211;SDS011;5663;50.864;12.096;2022-12-18T01:28:07;25.43;;;13.43;;
11211;SDS011;5663;50.864;12.096;2022-12-18T01:30:35;27.40;;;13.57;;
11211;SDS011;5663;50.864;12.096;2022-12-18T01:33:03;32.43;;;14.57;;
11211;SDS011;5663;50.864;12.096;2022-12-18T01:35:31;25.93;;;12.90;;
11211;SDS011;5663;50.864;12.096;2022-12-18T01:37:59;31.67;;;13.70;;
11211;SDS011;5663;50.864;12.096;2022-12-18T01:40:29;24.57;;;13.10;;
11211;SDS011;5663;50.864;12.096;2022-12-18T01:42:58;26.87;;;13.67;;
11211;SDS011;5663;50.864;12.096;2022-12-18T01:45:26;29.03;;;13.03;;
11211;SDS011;5663;50.864;12.096;2022-12-18T01:47:55;27.60;;;13.23;;
11211;SDS011;5663;50.864;12.096;2022-12-18T01:50:28;23.63;;;13.07;;
11211;SDS011;5663;50.864;12.096;2022-12-18T01:53:00;21.77;;;12.50;;
11211;SDS011;5663;50.864;12.096;2022-12-18T01:55:33;23.47;;;12.13;;
11211;SDS011;5663;50.864;12.096;2022-12-18T01:58:06;22.87;;;12.70;;
11211;SDS011;5663;50.864;12.096;2022-12-18T02:00:34;24.83;;;12.27;;
11211;SDS011;5663;50.864;12.096;2022-12-18T02:03:05;24.43;;;12.40;;
11211;SDS011;5663;50.864;12.096;2022-12-18T02:05:37;26.77;;;13.10;;
11211;SDS011;5663;50.864;12.096;2022-12-18T02:08:12;24.03;;;11.40;;
11211;SDS011;5663;50.864;12.096;2022-12-18T02:10:51;25.27;;;12.40;;
11211;SDS011;5663;50.864;12.096;2022-12-18T02:13:27;25.60;;;12.30;;
11211;SDS011;5663;50.864;12.096;2022-12-18T02:16:05;23.40;;;11.83;;
11211;SDS011;5663;50.864;12.096;2022-12-18T02:18:41;29.17;;;12.87;;
11211;SDS011;5663;50.864;12.096;2022-12-18T02:21:13;25.00;;;11.63;;
11211;SDS011;5663;50.864;12.096;2022-12-18T02:23:52;26.80;;;12.53;;
11211;SDS011;5663;50.864;12.096;2022-12-18T02:26:33;23.17;;;12.17;;
11211;SDS011;5663;50.864;12.096;2022-12-18T02:29:04;22.10;;;12.30;;
11211;SDS011;5663;50.864;12.096;2022-12-18T02:31:38;22.73;;;12.63;;
11211;SDS011;5663;50.864;12.096;2022-12-18T02:34:10;20.60;;;11.03;;
11211;SDS011;5663;50.864;12.096;2022-12-18T02:36:43;25.03;;;12.47;;
11211;SDS011;5663;50.864;12.096;2022-12-18T02:39:13;22.80;;;11.80;;
11211;SDS011;5663;50.864;12.096;2022-12-18T02:41:44;22.30;;;11.90;;
11211;SDS011;5663;50.864;12.096;2022-12-18T02:44:13;20.97;;;11.37;;
11211;SDS011;5663;50.864;12.096;2022-12-18T02:46:41;22.00;;;11.40;;
11211;SDS011;5663;50.864;12.096;2022-12-18T02:49:19;22.57;;;11.43;;
11211;SDS011;5663;50.864;12.096;2022-12-18T02:51:55;32.53;;;11.33;;
11211;SDS011;5663;50.864;12.096;2022-12-18T02:54:35;19.17;;;10.40;;
11211;SDS011;5663;50.864;12.096;2022-12-18T02:57:14;25.30;;;12.87;;
11211;SDS011;5663;50.864;12.096;2022-12-18T02:59:48;18.93;;;11.90;;
11211;SDS011;5663;50.864;12.096;2022-12-18T03:02:25;18.50;;;10.77;;
11211;SDS011;5663;50.864;12.096;2022-12-18T03:04:58;26.07;;;12.07;;
11211;SDS011;5663;50.864;12.096;2022-12-18T03:07:34;24.50;;;11.77;;
11211;SDS011;5663;50.864;12.096;2022-12-18T03:10:06;22.40;;;11.40;;
11211;SDS011;5663;50.864;12.096;2022-12-18T03:12:42;21.90;;;11.27;;
11211;SDS011;5663;50.864;12.096;2022-12-18T03:15:16;22.53;;;12.07;;
11211;SDS011;5663;50.864;12.096;2022-12-18T03:17:50;20.60;;;11.33;;
11211;SDS011;5663;50.864;12.096;2022-12-18T03:20:22;22.23;;;10.87;;
11211;SDS011;5663;50.864;12.096;2022-12-18T03:22:56;23.47;;;11.23;;
11211;SDS011;5663;50.864;12.096;2022-12-18T03:25:27;20.70;;;10.93;;
11211;SDS011;5663;50.864;12.096;2022-12-18T03:27:59;22.87;;;11.37;;
11211;SDS011;5663;50.864;12.096;2022-12-18T03:30:30;19.70;;;10.10;;
11211;SDS011;5663;50.864;12.096;2022-12-18T03:33:01;22.43;;;11.23;;
11211;SDS011;5663;50.864;12.096;2022-12-18T03:35:33;25.13;;;11.90;;
11211;SDS011;5663;50.864;12.096;2022-12-18T03:38:04;24.53;;;11.40;;
11211;SDS011;5663;50.864;12.096;2022-12-18T03:40:35;21.67;;;10.37;;
11211;SDS011;5663;50.864;12.096;2022-12-18T03:43:16;23.57;;;10.23;;
11211;SDS011;5663;50.864;12.096;2022-12-18T03:45:49;19.03;;;9.47;;
11211;SDS011;5663;50.864;12.096;2022-12-18T03:48:24;25.13;;;10.63;;
11211;SDS011;5663;50.864;12.096;2022-12-18T03:50:57;22.23;;;11.50;;
11211;SDS011;5663;50.864;12.096;2022-12-18T03:53:32;21.00;;;10.50;;
11211;SDS011;5663;50.864;12.096;2022-12-18T03:56:06;23.30;;;10.77;;
11211;SDS011;5663;50.864;12.096;2022-12-18T03:58:37;22.07;;;11.73;;
11211;SDS011;5663;50.864;12.096;2022-12-18T04:01:07;16.57;;;9.20;;
11211;SDS011;5663;50.864;12.096;2022-12-18T04:03:38;20.47;;;11.20;;
11211;SDS011;5663;50.864;12.096;2022-12-18T04:06:08;21.37;;;10.93;;
11211;SDS011;5663;50.864;12.096;2022-12-18T04:08:37;21.07;;;10.00;;
11211;SDS011;5663;50.864;12.096;2022-12-18T04:11:06;17.73;;;9.53;;
11211;SDS011;5663;50.864;12.096;2022-12-18T04:13:34;21.67;;;10.60;;
11211;SDS011;5663;50.864;12.096;2022-12-18T04:16:04;18.53;;;9.67;;
11211;SDS011;5663;50.864;12.096;2022-12-18T04:18:33;18.43;;;9.80;;
11211;SDS011;5663;50.864;12.096;2022-12-18T04:21:00;26.23;;;10.57;;
11211;SDS011;5663;50.864;12.096;2022-12-18T04:23:29;19.57;;;10.27;;
11211;SDS011;5663;50.864;12.096;2022-12-18T04:25:57;19.67;;;9.90;;
11211;SDS011;5663;50.864;12.096;2022-12-18T04:28:24;22.83;;;10.80;;
11211;SDS011;5663;50.864;12.096;2022-12-18T04:30:53;19.03;;;9.37;;
11211;SDS011;5663;50.864;12.096;2022-12-18T04:33:21;22.77;;;9.80;;
11211;SDS011;5663;50.864;12.096;2022-12-18T04:35:49;19.30;;;8.87;;
11211;SDS011;5663;50.864;12.096;2022-12-18T04:38:16;18.73;;;9.03;;
11211;SDS011;5663;50.864;12.096;2022-12-18T04:40:45;16.50;;;8.00;;
11211;SDS011;5663;50.864;12.096;2022-12-18T04:43:13;20.27;;;9.57;;
11211;SDS011;5663;50.864;12.096;2022-12-18T04:45:40;16.40;;;8.80;;
11211;SDS011;5663;50.864;12.096;2022-12-18T04:48:10;17.47;;;8.93;;
11211;SDS011;5663;50.864;12.096;2022-12-18T04:50:38;16.30;;;8.73;;
11211;SDS011;5663;50.864;12.096;2022-12-18T04:53:05;17.03;;;8.33;;
11211;SDS011;5663;50.864;12.096;2022-12-18T04:55:36;19.87;;;8.60;;
11211;SDS011;5663;50.864;12.096;2022-12-18T04:58:03;20.03;;;9.73;;
11211;SDS011;5663;50.864;12.096;2022-12-18T05:00:34;19.77;;;8.83;;
11211;SDS011;5663;50.864;12.096;2022-12-18T05:03:01;17.20;;;8.57;;
11211;SDS011;5663;50.864;12.096;2022-12-18T05:05:31;14.83;;;7.60;;
11211;SDS011;5663;50.864;12.096;2022-12-18T05:08:06;16.47;;;8.23;;
11211;SDS011;5663;50.864;12.096;2022-12-18T05:10:33;19.40;;;8.30;;
11211;SDS011;5663;50.864;12.096;2022-12-18T05:13:01;14.97;;;8.07;;
11211;SDS011;5663;50.864;12.096;2022-12-18T05:15:29;16.70;;;7.90;;
11211;SDS011;5663;50.864;12.096;2022-12-18T05:17:58;15.37;;;7.90;;
11211;SDS011;5663;50.864;12.096;2022-12-18T05:20:32;17.37;;;8.33;;
11211;SDS011;5663;50.864;12.096;2022-12-18T05:23:00;18.03;;;8.10;;
11211;SDS011;5663;50.864;12.096;2022-12-18T05:25:28;16.97;;;8.13;;
11211;SDS011;5663;50.864;12.096;2022-12-18T05:27:55;23.23;;;11.47;;
11211;SDS011;5663;50.864;12.096;2022-12-18T05:30:23;19.83;;;10.53;;
11211;SDS011;5663;50.864;12.096;2022-12-18T05:32:50;24.70;;;11.77;;
11211;SDS011;5663;50.864;12.096;2022-12-18T05:35:18;19.97;;;10.37;;
11211;SDS011;5663;50.864;12.096;2022-12-18T05:37:48;17.30;;;9.13;;
11211;SDS011;5663;50.864;12.096;2022-12-18T05:40:16;20.50;;;8.83;;
11211;SDS011;5663;50.864;12.096;2022-12-18T05:42:45;18.37;;;8.90;;
11211;SDS011;5663;50.864;12.096;2022-12-18T05:45:13;17.67;;;9.50;;
11211;SDS011;5663;50.864;12.096;2022-12-18T05:47:40;17.43;;;9.40;;
11211;SDS011;5663;50.864;12.096;2022-12-18T05:50:08;17.57;;;9.33;;
11211;SDS011;5663;50.864;12.096;2022-12-18T05:52:36;15.63;;;8.97;;
11211;SDS011;5663;50.864;12.096;2022-12-18T05:55:07;15.10;;;7.77;;
11211;SDS011;5663;50.864;12.096;2022-12-18T05:57:39;14.47;;;7.87;;
11211;SDS011;5663;50.864;12.096;2022-12-18T06:00:09;35.50;;;15.90;;
11211;SDS011;5663;50.864;12.096;2022-12-18T06:02:37;47.70;;;22.70;;
11211;SDS011;5663;50.864;12.096;2022-12-18T06:05:05;56.33;;;27.87;;
11211;SDS011;5663;50.864;12.096;2022-12-18T06:07:34;38.73;;;18.63;;
11211;SDS011;5663;50.864;12.096;2022-12-18T06:10:01;54.17;;;23.83;;
11211;SDS011;5663;50.864;12.096;2022-12-18T06:12:30;49.33;;;22.63;;
11211;SDS011;5663;50.864;12.096;2022-12-18T06:14:59;29.97;;;14.50;;
11211;SDS011;5663;50.864;12.096;2022-12-18T06:17:27;21.90;;;10.40;;
11211;SDS011;5663;50.864;12.096;2022-12-18T06:19:55;18.27;;;9.40;;
11211;SDS011;5663;50.864;12.096;2022-12-18T06:22:23;19.07;;;10.23;;
11211;SDS011;5663;50.864;12.096;2022-12-18T06:24:52;19.30;;;9.67;;
11211;SDS011;5663;50.864;12.096;2022-12-18T06:27:20;24.87;;;10.50;;
11211;SDS011;5663;50.864;12.096;2022-12-18T06:29:49;20.23;;;9.27;;
11211;SDS011;5663;50.864;12.096;2022-12-18T06:32:16;23.67;;;11.77;;
11211;SDS011;5663;50.864;12.096;2022-12-18T06:34:44;17.93;;;8.10;;
11211;SDS011;5663;50.864;12.096;2022-12-18T06:37:12;17.70;;;7.57;;
11211;SDS011;5663;50.864;12.096;2022-12-18T06:39:45;26.87;;;11.37;;
11211;SDS011;5663;50.864;12.096;2022-12-18T06:42:12;25.67;;;12.10;;
11211;SDS011;5663;50.864;12.096;2022-12-18T06:44:40;20.03;;;10.93;;
11211;SDS011;5663;50.864;12.096;2022-12-18T06:47:09;20.13;;;9.73;;
11211;SDS011;5663;50.864;12.096;2022-12-18T06:49:37;17.33;;;8.43;;
11211;SDS011;5663;50.864;12.096;2022-12-18T06:52:05;17.17;;;8.03;;
11211;SDS011;5663;50.864;12.096;2022-12-18T06:54:33;13.37;;;6.73;;
11211;SDS011;5663;50.864;12.096;2022-12-18T06:57:00;13.73;;;7.43;;
11211;SDS011;5663;50.864;12.096;2022-12-18T06:59:29;18.60;;;7.67;;
11211;SDS011;5663;50.864;12.096;2022-12-18T07:01:57;16.10;;;7.67;;
11211;SDS011;5663;50.864;12.096;2022-12-18T07:04:28;15.80;;;7.00;;
11211;SDS011;5663;50.864;12.096;2022-12-18T07:06:56;14.57;;;7.23;;
11211;SDS011;5663;50.864;12.096;2022-12-18T07:09:24;13.53;;;6.67;;
11211;SDS011;5663;50.864;12.096;2022-12-18T07:11:51;16.00;;;7.27;;
11211;SDS011;5663;50.864;12.096;2022-12-18T07:14:19;11.47;;;6.63;;
11211;SDS011;5663;50.864;12.096;2022-12-18T07:16:47;13.00;;;6.90;;
11211;SDS011;5663;50.864;12.096;2022-12-18T07:19:14;13.17;;;6.80;;
11211;SDS011;5663;50.864;12.096;2022-12-18T07:21:44;14.57;;;7.00;;
11211;SDS011;5663;50.864;12.096;2022-12-18T07:24:11;14.27;;;7.40;;
11211;SDS011;5663;50.864;12.096;2022-12-18T07:26:40;14.87;;;7.07;;
11211;SDS011;5663;50.864;12.096;2022-12-18T07:29:10;15.30;;;7.07;;
11211;SDS011;5663;50.864;12.096;2022-12-18T07:31:38;16.20;;;7.60;;
11211;SDS011;5663;50.864;12.096;2022-12-18T07:34:09;15.70;;;7.50;;
11211;SDS011;5663;50.864;12.096;2022-12-18T07:36:37;17.73;;;8.17;;
11211;SDS011;5663;50.864;12.096;2022-12-18T07:39:07;13.93;;;8.17;;
11211;SDS011;5663;50.864;12.096;2022-12-18T07:41:34;12.43;;;7.23;;
11211;SDS011;5663;50.864;12.096;2022-12-18T07:44:09;16.27;;;7.73;;
11211;SDS011;5663;50.864;12.096;2022-12-18T07:46:38;11.57;;;7.13;;
11211;SDS011;5663;50.864;12.096;2022-12-18T07:49:10;16.53;;;7.60;;
11211;SDS011;5663;50.864;12.096;2022-12-18T07:51:39;13.83;;;7.63;;
11211;SDS011;5663;50.864;12.096;2022-12-18T07:54:09;13.13;;;6.93;;
11211;SDS011;5663;50.864;12.096;2022-12-18T07:56:36;14.77;;;7.93;;
11211;SDS011;5663;50.864;12.096;2022-12-18T07:59:04;10.50;;;6.53;;
11211;SDS011;5663;50.864;12.096;2022-12-18T08:01:34;11.13;;;7.00;;
11211;SDS011;5663;50.864;12.096;2022-12-18T08:04:02;10.40;;;6.90;;
11211;SDS011;5663;50.864;12.096;2022-12-18T08:06:33;12.33;;;6.73;;
11211;SDS011;5663;50.864;12.096;2022-12-18T08:09:00;15.33;;;7.37;;
11211;SDS011;5663;50.864;12.096;2022-12-18T08:11:30;11.33;;;6.80;;
11211;SDS011;5663;50.864;12.096;2022-12-18T08:13:58;17.93;;;7.13;;
11211;SDS011;5663;50.864;12.096;2022-12-18T08:16:25;17.93;;;7.73;;
11211;SDS011;5663;50.864;12.096;2022-12-18T08:18:53;13.90;;;7.23;;
11211;SDS011;5663;50.864;12.096;2022-12-18T08:21:22;14.50;;;7.90;;
11211;SDS011;5663;50.864;12.096;2022-12-18T08:23:52;16.97;;;7.67;;
11211;SDS011;5663;50.864;12.096;2022-12-18T08:26:24;14.97;;;7.57;;
11211;SDS011;5663;50.864;12.096;2022-12-18T08:28:54;12.63;;;7.60;;
11211;SDS011;5663;50.864;12.096;2022-12-18T08:31:24;16.13;;;7.90;;
11211;SDS011;5663;50.864;12.096;2022-12-18T08:33:53;15.47;;;7.37;;
11211;SDS011;5663;50.864;12.096;2022-12-18T08:36:21;16.13;;;7.80;;
11211;SDS011;5663;50.864;12.096;2022-12-18T08:38:58;13.90;;;7.27;;
11211;SDS011;5663;50.864;12.096;2022-12-18T08:41:26;13.27;;;7.80;;
11211;SDS011;5663;50.864;12.096;2022-12-18T08:44:04;13.80;;;8.27;;
11211;SDS011;5663;50.864;12.096;2022-12-18T08:46:56;13.50;;;7.93;;
11211;SDS011;5663;50.864;12.096;2022-12-18T08:49:23;19.57;;;8.77;;
11211;SDS011;5663;50.864;12.096;2022-12-18T08:51:53;17.07;;;9.43;;
11211;SDS011;5663;50.864;12.096;2022-12-18T08:54:23;17.33;;;9.00;;
11211;SDS011;5663;50.864;12.096;2022-12-18T08:56:50;14.80;;;8.77;;
11211;SDS011;5663;50.864;12.096;2022-12-18T08:59:21;22.50;;;8.97;;
11211;SDS011;5663;50.864;12.096;2022-12-18T09:01:53;14.83;;;8.60;;
11211;SDS011;5663;50.864;12.096;2022-12-18T09:04:20;16.93;;;9.27;;
11211;SDS011;5663;50.864;12.096;2022-12-18T09:06:49;17.50;;;9.60;;
11211;SDS011;5663;50.864;12.096;2022-12-18T09:09:16;19.23;;;10.83;;
11211;SDS011;5663;50.864;12.096;2022-12-18T09:11:44;20.40;;;10.83;;
11211;SDS011;5663;50.864;12.096;2022-12-18T09:14:12;19.53;;;10.33;;
11211;SDS011;5663;50.864;12.096;2022-12-18T09:16:41;20.63;;;10.73;;
11211;SDS011;5663;50.864;12.096;2022-12-18T09:19:09;21.03;;;10.90;;
11211;SDS011;5663;50.864;12.096;2022-12-18T09:21:37;21.27;;;11.07;;
11211;SDS011;5663;50.864;12.096;2022-12-18T09:24:09;20.77;;;11.97;;
11211;SDS011;5663;50.864;12.096;2022-12-18T09:26:39;20.53;;;11.60;;
11211;SDS011;5663;50.864;12.096;2022-12-18T09:29:07;25.37;;;13.07;;
11211;SDS011;5663;50.864;12.096;2022-12-18T09:31:35;24.63;;;13.20;;
11211;SDS011;5663;50.864;12.096;2022-12-18T09:34:08;24.27;;;13.50;;
11211;SDS011;5663;50.864;12.096;2022-12-18T09:36:37;26.40;;;13.93;;
11211;SDS011;5663;50.864;12.096;2022-12-18T09:39:06;27.00;;;14.37;;
11211;SDS011;5663;50.864;12.096;2022-12-18T09:41:41;24.07;;;13.47;;
11211;SDS011;5663;50.864;12.096;2022-12-18T09:44:15;27.90;;;14.73;;
11211;SDS011;5663;50.864;12.096;2022-12-18T09:46:49;29.67;;;15.17;;
11211;SDS011;5663;50.864;12.096;2022-12-18T09:49:24;28.00;;;14.00;;
11211;SDS011;5663;50.864;12.096;2022-12-18T09:51:56;29.03;;;15.60;;
11211;SDS011;5663;50.864;12.096;2022-12-18T09:54:33;26.50;;;14.27;;
11211;SDS011;5663;50.864;12.096;2022-12-18T09:57:09;28.70;;;15.57;;
11211;SDS011;5663;50.864;12.096;2022-12-18T09:59:41;32.93;;;17.43;;
11211;SDS011;5663;50.864;12.096;2022-12-18T10:02:14;36.23;;;19.90;;
11211;SDS011;5663;50.864;12.096;2022-12-18T10:04:46;40.47;;;20.80;;
11211;SDS011;5663;50.864;12.096;2022-12-18T10:07:19;40.60;;;20.97;;
11211;SDS011;5663;50.864;12.096;2022-12-18T10:09:53;54.13;;;29.10;;
11211;SDS011;5663;50.864;12.096;2022-12-18T10:12:30;39.13;;;19.73;;
11211;SDS011;5663;50.864;12.096;2022-12-18T10:15:10;37.37;;;21.07;;
11211;SDS011;5663;50.864;12.096;2022-12-18T10:17:47;46.57;;;25.30;;
11211;SDS011;5663;50.864;12.096;2022-12-18T10:20:27;46.53;;;23.13;;
11211;SDS011;5663;50.864;12.096;2022-12-18T10:23:00;43.43;;;24.07;;
11211;SDS011;5663;50.864;12.096;2022-12-18T10:25:37;45.60;;;21.40;;
11211;SDS011;5663;50.864;12.096;2022-12-18T10:28:14;38.70;;;20.50;;
11211;SDS011;5663;50.864;12.096;2022-12-18T10:30:47;42.57;;;19.87;;
11211;SDS011;5663;50.864;12.096;2022-12-18T10:33:17;41.50;;;20.97;;
11211;SDS011;5663;50.864;12.096;2022-12-18T10:35:50;46.57;;;22.50;;
11211;SDS011;5663;50.864;12.096;2022-12-18T10:38:22;36.67;;;18.13;;
11211;SDS011;5663;50.864;12.096;2022-12-18T10:40:53;36.63;;;18.07;;
11211;SDS011;5663;50.864;12.096;2022-12-18T10:43:25;38.97;;;19.60;;
11211;SDS011;5663;50.864;12.096;2022-12-18T10:46:14;47.93;;;22.27;;
11211;SDS011;5663;50.864;12.096;2022-12-18T10:48:52;40.60;;;19.80;;
11211;SDS011;5663;50.864;12.096;2022-12-18T10:51:25;35.37;;;17.30;;
11211;SDS011;5663;50.864;12.096;2022-12-18T10:53:59;34.77;;;19.47;;
11211;SDS011;5663;50.864;12.096;2022-12-18T10:56:29;35.67;;;19.93;;
11211;SDS011;5663;50.864;12.096;2022-12-18T10:59:01;37.60;;;20.53;;
11211;SDS011;5663;50.864;12.096;2022-12-18T11:01:31;35.23;;;19.30;;
11211;SDS011;5663;50.864;12.096;2022-12-18T11:04:16;40.83;;;19.97;;
11211;SDS011;5663;50.864;12.096;2022-12-18T11:06:59;34.73;;;19.20;;
11211;SDS011;5663;50.864;12.096;2022-12-18T11:09:31;30.57;;;15.93;;
11211;SDS011;5663;50.864;12.096;2022-12-18T11:12:00;33.90;;;17.43;;
11211;SDS011;5663;50.864;12.096;2022-12-18T11:14:41;31.77;;;17.57;;
11211;SDS011;5663;50.864;12.096;2022-12-18T11:17:17;25.67;;;14.50;;
11211;SDS011;5663;50.864;12.096;2022-12-18T11:19:51;22.60;;;13.97;;
11211;SDS011;5663;50.864;12.096;2022-12-18T11:22:23;19.87;;;11.17;;
11211;SDS011;5663;50.864;12.096;2022-12-18T11:24:55;19.17;;;10.60;;
11211;SDS011;5663;50.864;12.096;2022-12-18T11:27:25;20.70;;;12.43;;
11211;SDS011;5663;50.864;12.096;2022-12-18T11:30:06;25.00;;;11.23;;
11211;SDS011;5663;50.864;12.096;2022-12-18T11:32:38;17.20;;;9.90;;
11211;SDS011;5663;50.864;12.096;2022-12-18T11:35:15;17.57;;;10.33;;
11211;SDS011;5663;50.864;12.096;2022-12-18T11:37:49;17.87;;;10.53;;
11211;SDS011;5663;50.864;12.096;2022-12-18T11:40:30;15.63;;;9.57;;
11211;SDS011;5663;50.864;12.096;2022-12-18T11:43:03;18.63;;;11.10;;
11211;SDS011;5663;50.864;12.096;2022-12-18T11:45:39;16.97;;;10.30;;
11211;SDS011;5663;50.864;12.096;2022-12-18T11:48:13;20.10;;;11.30;;
11211;SDS011;5663;50.864;12.096;2022-12-18T11:50:47;18.10;;;11.77;;
11211;SDS011;5663;50.864;12.096;2022-12-18T11:53:19;20.87;;;10.57;;
11211;SDS011;5663;50.864;12.096;2022-12-18T11:55:54;17.40;;;9.57;;
11211;SDS011;5663;50.864;12.096;2022-12-18T11:58:32;15.17;;;9.03;;
11211;SDS011;5663;50.864;12.096;2022-12-18T12:01:16;15.90;;;9.30;;
11211;SDS011;5663;50.864;12.096;2022-12-18T12:04:06;16.83;;;9.93;;
11211;SDS011;5663;50.864;12.096;2022-12-18T12:06:46;16.03;;;9.80;;
11211;SDS011;5663;50.864;12.096;2022-12-18T12:09:25;17.80;;;9.67;;
11211;SDS011;5663;50.864;12.096;2022-12-18T12:12:01;14.93;;;8.87;;
11211;SDS011;5663;50.864;12.096;2022-12-18T12:14:46;16.33;;;8.53;;
11211;SDS011;5663;50.864;12.096;2022-12-18T12:17:28;17.83;;;9.10;;
11211;SDS011;5663;50.864;12.096;2022-12-18T12:20:02;15.23;;;8.63;;
11211;SDS011;5663;50.864;12.096;2022-12-18T12:22:42;18.03;;;9.40;;
11211;SDS011;5663;50.864;12.096;2022-12-18T12:25:20;14.60;;;7.67;;
11211;SDS011;5663;50.864;12.096;2022-12-18T12:27:59;12.77;;;7.80;;
11211;SDS011;5663;50.864;12.096;2022-12-18T12:30:42;13.27;;;8.37;;
11211;SDS011;5663;50.864;12.096;2022-12-18T12:33:22;13.87;;;8.17;;
11211;SDS011;5663;50.864;12.096;2022-12-18T12:36:04;12.13;;;7.00;;
11211;SDS011;5663;50.864;12.096;2022-12-18T12:38:54;13.47;;;8.17;;
11211;SDS011;5663;50.864;12.096;2022-12-18T12:42:18;13.93;;;7.07;;
11211;SDS011;5663;50.864;12.096;2022-12-18T12:45:14;11.73;;;6.90;;
11211;SDS011;5663;50.864;12.096;2022-12-18T12:47:47;12.30;;;6.97;;
11211;SDS011;5663;50.864;12.096;2022-12-18T12:50:17;10.53;;;6.40;;
11211;SDS011;5663;50.864;12.096;2022-12-18T12:52:48;10.47;;;6.50;;
11211;SDS011;5663;50.864;12.096;2022-12-18T12:55:19;11.70;;;6.93;;
11211;SDS011;5663;50.864;12.096;2022-12-18T12:57:54;12.50;;;6.97;;
11211;SDS011;5663;50.864;12.096;2022-12-18T13:00:26;11.17;;;6.33;;
11211;SDS011;5663;50.864;12.096;2022-12-18T13:03:04;12.43;;;6.70;;
11211;SDS011;5663;50.864;12.096;2022-12-18T13:05:43;11.80;;;6.63;;
11211;SDS011;5663;50.864;12.096;2022-12-18T13:08:22;9.23;;;5.77;;
11211;SDS011;5663;50.864;12.096;2022-12-18T13:10:51;12.00;;;5.90;;
11211;SDS011;5663;50.864;12.096;2022-12-18T13:13:49;10.30;;;6.13;;
11211;SDS011;5663;50.864;12.096;2022-12-18T13:16:18;11.70;;;6.20;;
11211;SDS011;5663;50.864;12.096;2022-12-18T13:18:50;8.97;;;6.07;;
11211;SDS011;5663;50.864;12.096;2022-12-18T13:21:21;9.30;;;5.67;;
11211;SDS011;5663;50.864;12.096;2022-12-18T13:23:53;9.47;;;5.93;;
11211;SDS011;5663;50.864;12.096;2022-12-18T13:26:28;10.20;;;6.00;;
11211;SDS011;5663;50.864;12.096;2022-12-18T13:29:00;11.20;;;6.70;;
11211;SDS011;5663;50.864;12.096;2022-12-18T13:34:28;8.80;;;5.70;;
11211;SDS011;5663;50.864;12.096;2022-12-18T13:39:58;10.40;;;5.43;;
11211;SDS011;5663;50.864;12.096;2022-12-18T13:45:45;11.57;;;7.23;;
11211;SDS011;5663;50.864;12.096;2022-12-18T13:48:17;9.23;;;6.47;;
11211;SDS011;5663;50.864;12.096;2022-12-18T13:50:58;10.40;;;6.00;;
11211;SDS011;5663;50.864;12.096;2022-12-18T13:53:32;10.43;;;6.20;;
11211;SDS011;5663;50.864;12.096;2022-12-18T13:56:03;10.97;;;6.40;;
11211;SDS011;5663;50.864;12.096;2022-12-18T13:58:32;10.60;;;6.63;;
11211;SDS011;5663;50.864;12.096;2022-12-18T14:01:03;13.53;;;6.87;;
11211;SDS011;5663;50.864;12.096;2022-12-18T14:03:31;11.43;;;6.03;;
11211;SDS011;5663;50.864;12.096;2022-12-18T14:05:59;11.13;;;6.83;;
11211;SDS011;5663;50.864;12.096;2022-12-18T14:08:36;10.77;;;6.80;;
11211;SDS011;5663;50.864;12.096;2022-12-18T14:11:17;15.67;;;6.60;;
11211;SDS011;5663;50.864;12.096;2022-12-18T14:13:55;11.03;;;6.57;;
11211;SDS011;5663;50.864;12.096;2022-12-18T14:16:43;11.57;;;6.13;;
11211;SDS011;5663;50.864;12.096;2022-12-18T14:19:16;11.60;;;6.20;;
11211;SDS011;5663;50.864;12.096;2022-12-18T14:21:45;11.57;;;6.90;;
11211;SDS011;5663;50.864;12.096;2022-12-18T14:24:17;10.93;;;6.27;;
11211;SDS011;5663;50.864;12.096;2022-12-18T14:26:52;9.83;;;6.40;;
11211;SDS011;5663;50.864;12.096;2022-12-18T14:29:22;10.17;;;5.90;;
11211;SDS011;5663;50.864;12.096;2022-12-18T14:32:06;10.77;;;7.13;;
11211;SDS011;5663;50.864;12.096;2022-12-18T14:34:36;16.00;;;7.50;;
11211;SDS011;5663;50.864;12.096;2022-12-18T14:37:04;13.47;;;7.00;;
11211;SDS011;5663;50.864;12.096;2022-12-18T14:39:32;13.43;;;7.20;;
11211;SDS011;5663;50.864;12.096;2022-12-18T14:42:01;13.43;;;7.57;;
11211;SDS011;5663;50.864;12.096;2022-12-18T14:44:28;13.43;;;7.93;;
11211;SDS011;5663;50.864;12.096;2022-12-18T14:46:56;13.80;;;8.20;;
11211;SDS011;5663;50.864;12.096;2022-12-18T14:49:29;12.97;;;7.33;;
11211;SDS011;5663;50.864;12.096;2022-12-18T14:52:00;15.57;;;8.00;;
11211;SDS011;5663;50.864;12.096;2022-12-18T14:54:31;15.50;;;8.27;;
11211;SDS011;5663;50.864;12.096;2022-12-18T14:57:05;13.90;;;8.60;;
11211;SDS011;5663;50.864;12.096;2022-12-18T14:59:47;14.43;;;9.03;;
11211;SDS011;5663;50.864;12.096;2022-12-18T15:02:22;17.90;;;9.40;;
11211;SDS011;5663;50.864;12.096;2022-12-18T15:05:00;17.47;;;9.33;;